createdAt,value
2023-07-10T00:00:42.829Z,20.43
2023-07-10T00:01:46.182Z,20.42
2023-07-10T00:02:50.355Z,20.41
2023-07-10T00:03:54.079Z,20.39
2023-07-10T00:04:57.100Z,20.39
2023-07-10T00:06:00.609Z,20.38
2023-07-10T00:07:03.358Z,20.36
2023-07-10T00:08:06.020Z,20.35
2023-07-10T00:09:08.633Z,20.35
2023-07-10T00:10:13.460Z,20.34
2023-07-10T00:11:18.247Z,20.34
2023-07-10T00:12:23.217Z,20.32
2023-07-10T00:13:25.839Z,20.31
2023-07-10T00:14:28.454Z,20.30
2023-07-10T00:15:31.395Z,20.28
2023-07-10T00:16:34.348Z,20.26
2023-07-10T00:17:37.011Z,20.25
2023-07-10T00:18:39.626Z,20.23
2023-07-10T00:19:42.740Z,20.22
2023-07-10T00:20:49.072Z,20.20
2023-07-10T00:21:52.441Z,20.18
2023-07-10T00:22:55.238Z,20.16
2023-07-10T00:23:57.836Z,20.14
2023-07-10T00:25:00.457Z,20.12
2023-07-10T00:26:03.456Z,20.10
2023-07-10T00:27:13.262Z,20.08
2023-07-10T00:28:18.302Z,20.06
2023-07-10T00:29:26.078Z,20.03
2023-07-10T00:30:28.763Z,20.01
2023-07-10T00:31:31.539Z,20.00
2023-07-10T00:32:34.630Z,19.98
2023-07-10T00:33:37.292Z,19.96
2023-07-10T00:34:39.879Z,19.94
2023-07-10T00:35:43.534Z,19.92
2023-07-10T00:36:52.266Z,19.91
2023-07-10T00:38:03.066Z,19.89
2023-07-10T00:39:31.736Z,19.87
2023-07-10T00:40:35.219Z,19.85
2023-07-10T00:41:38.740Z,19.84
2023-07-10T00:42:41.342Z,19.82
2023-07-10T00:43:49.871Z,19.81
2023-07-10T00:44:57.902Z,19.79
2023-07-10T00:46:10.935Z,19.78
2023-07-10T00:47:33.875Z,19.76
2023-07-10T00:48:47.940Z,19.75
2023-07-10T00:49:55.429Z,19.73
2023-07-10T00:51:01.803Z,19.72
2023-07-10T00:52:15.948Z,19.71
2023-07-10T00:53:33.158Z,19.70
2023-07-10T00:54:43.502Z,19.68
2023-07-10T00:55:46.880Z,19.66
2023-07-10T00:56:50.967Z,19.65
2023-07-10T00:58:13.430Z,19.63
2023-07-10T00:59:25.040Z,19.61
2023-07-10T01:01:22.377Z,19.60
2023-07-10T01:02:25.250Z,19.57
2023-07-10T01:03:28.468Z,19.56
2023-07-10T01:04:31.114Z,19.54
2023-07-10T01:05:33.691Z,19.53
2023-07-10T01:06:36.296Z,19.51
2023-07-10T01:07:44.928Z,19.50
2023-07-10T01:09:16.344Z,19.48
2023-07-10T01:10:19.059Z,19.45
2023-07-10T01:12:02.721Z,19.44
2023-07-10T01:13:05.836Z,19.42
2023-07-10T01:14:10.382Z,19.40
2023-07-10T01:15:15.138Z,19.39
2023-07-10T01:16:18.948Z,19.38
2023-07-10T01:17:21.684Z,19.36
2023-07-10T01:18:25.960Z,19.35
2023-07-10T01:19:29.406Z,19.34
2023-07-10T01:20:40.647Z,19.34
2023-07-10T01:21:43.227Z,19.33
2023-07-10T01:22:46.534Z,19.32
2023-07-10T01:23:49.361Z,19.31
2023-07-10T01:24:53.991Z,19.31
2023-07-10T01:26:00.171Z,19.30
2023-07-10T01:27:03.156Z,19.29
2023-07-10T01:28:10.854Z,19.28
2023-07-10T01:29:43.491Z,19.27
2023-07-10T01:30:47.148Z,19.25
2023-07-10T01:31:52.242Z,19.24
2023-07-10T01:32:56.028Z,19.23
2023-07-10T01:34:03.768Z,19.22
2023-07-10T01:35:07.614Z,19.20
2023-07-10T01:36:13.632Z,19.19
2023-07-10T01:37:16.393Z,19.18
2023-07-10T01:38:19.017Z,19.17
2023-07-10T01:39:31.599Z,19.16
2023-07-10T01:40:38.225Z,19.14
2023-07-10T01:41:45.810Z,19.12
2023-07-10T01:42:48.431Z,19.12
2023-07-10T01:43:51.026Z,19.11
2023-07-10T01:44:54.219Z,19.09
2023-07-10T01:45:56.848Z,19.08
2023-07-10T01:47:00.991Z,19.07
2023-07-10T01:48:03.637Z,19.06
2023-07-10T01:49:06.934Z,19.05
2023-07-10T01:50:10.140Z,19.04
2023-07-10T01:51:12.792Z,19.03
2023-07-10T01:52:19.000Z,19.03
2023-07-10T01:53:21.601Z,19.02
2023-07-10T01:54:24.218Z,19.01
2023-07-10T01:55:29.243Z,19.00
2023-07-10T01:56:33.023Z,18.98
2023-07-10T01:57:35.627Z,18.97
2023-07-10T01:58:38.218Z,18.96
2023-07-10T01:59:40.892Z,18.96
2023-07-10T02:00:43.558Z,18.95
2023-07-10T02:01:47.449Z,18.94
2023-07-10T02:02:50.199Z,18.93
2023-07-10T02:03:52.954Z,18.92
2023-07-10T02:04:55.653Z,18.90
2023-07-10T02:05:58.312Z,18.89
2023-07-10T02:07:01.067Z,18.87
2023-07-10T02:08:03.774Z,18.85
2023-07-10T02:09:06.756Z,18.84
2023-07-10T02:10:09.729Z,18.84
2023-07-10T02:11:13.716Z,18.83
2023-07-10T02:12:16.321Z,18.82
2023-07-10T02:13:19.129Z,18.82
2023-07-10T02:14:22.325Z,18.82
2023-07-10T02:15:24.904Z,18.81
2023-07-10T02:16:27.511Z,18.81
2023-07-10T02:17:30.248Z,18.81
2023-07-10T02:18:32.923Z,18.80
2023-07-10T02:19:35.486Z,18.80
2023-07-10T02:20:43.203Z,18.80
2023-07-10T02:21:45.862Z,18.79
2023-07-10T02:22:48.481Z,18.79
2023-07-10T02:23:51.114Z,18.78
2023-07-10T02:24:53.745Z,18.78
2023-07-10T02:25:56.565Z,18.77
2023-07-10T02:26:59.206Z,18.76
2023-07-10T02:28:01.824Z,18.75
2023-07-10T02:29:04.580Z,18.74
2023-07-10T02:30:07.785Z,18.74
2023-07-10T02:31:10.956Z,18.73
2023-07-10T02:32:13.655Z,18.72
2023-07-10T02:33:16.280Z,18.70
2023-07-10T02:34:19.063Z,18.69
2023-07-10T02:35:21.658Z,18.67
2023-07-10T02:36:27.202Z,18.65
2023-07-10T02:37:29.911Z,18.63
2023-07-10T02:38:32.594Z,18.61
2023-07-10T02:39:35.171Z,18.59
2023-07-10T02:40:37.755Z,18.56
2023-07-10T02:41:40.432Z,18.54
2023-07-10T02:42:43.110Z,18.52
2023-07-10T02:43:45.746Z,18.50
2023-07-10T02:44:48.356Z,18.48
2023-07-10T02:45:51.127Z,18.46
2023-07-10T02:46:53.763Z,18.44
2023-07-10T02:47:56.415Z,18.42
2023-07-10T02:48:59.094Z,18.41
2023-07-10T02:50:01.710Z,18.39
2023-07-10T02:51:04.308Z,18.38
2023-07-10T02:52:07.280Z,18.36
2023-07-10T02:53:09.993Z,18.35
2023-07-10T02:54:14.015Z,18.33
2023-07-10T02:55:16.579Z,18.32
2023-07-10T02:56:19.188Z,18.31
2023-07-10T02:57:21.851Z,18.30
2023-07-10T02:58:24.483Z,18.29
2023-07-10T02:59:28.382Z,18.28
2023-07-10T03:00:30.986Z,18.26
2023-07-10T03:01:33.721Z,18.26
2023-07-10T03:02:36.416Z,18.25
2023-07-10T03:03:44.865Z,18.24
2023-07-10T03:04:47.645Z,18.23
2023-07-10T03:05:54.928Z,18.22
2023-07-10T03:06:57.519Z,18.21
2023-07-10T03:08:00.185Z,18.20
2023-07-10T03:09:02.906Z,18.19
2023-07-10T03:10:06.054Z,18.18
2023-07-10T03:11:11.258Z,18.18
2023-07-10T03:12:13.839Z,18.17
2023-07-10T03:13:16.426Z,18.16
2023-07-10T03:14:19.061Z,18.15
2023-07-10T03:15:23.538Z,18.15
2023-07-10T03:16:26.150Z,18.14
2023-07-10T03:17:28.732Z,18.13
2023-07-10T03:18:31.608Z,18.13
2023-07-10T03:19:35.158Z,18.13
2023-07-10T03:20:41.093Z,18.13
2023-07-10T03:21:43.929Z,18.12
2023-07-10T03:22:46.507Z,18.12
2023-07-10T03:23:51.081Z,18.11
2023-07-10T03:24:54.767Z,18.11
2023-07-10T03:25:57.514Z,18.11
2023-07-10T03:27:00.253Z,18.11
2023-07-10T03:28:03.015Z,18.12
2023-07-10T03:29:11.512Z,18.13
2023-07-10T03:30:14.208Z,18.14
2023-07-10T03:31:16.826Z,18.15
2023-07-10T03:32:19.597Z,18.16
2023-07-10T03:33:22.260Z,18.17
2023-07-10T03:34:24.853Z,18.18
2023-07-10T03:35:27.499Z,18.19
2023-07-10T03:36:30.305Z,18.21
2023-07-10T03:37:32.881Z,18.24
2023-07-10T03:38:35.974Z,18.28
2023-07-10T03:39:38.640Z,18.32
2023-07-10T03:40:50.394Z,18.36
2023-07-10T03:41:53.024Z,18.42
2023-07-10T03:42:55.643Z,18.47
2023-07-10T03:43:58.238Z,18.53
2023-07-10T03:45:00.835Z,18.60
2023-07-10T03:46:03.977Z,18.67
2023-07-10T03:47:07.189Z,18.75
2023-07-10T03:48:10.030Z,18.81
2023-07-10T03:49:12.951Z,18.89
2023-07-10T03:50:16.375Z,18.95
2023-07-10T03:51:19.824Z,19.00
2023-07-10T03:52:22.430Z,19.05
2023-07-10T03:53:25.057Z,19.11
2023-07-10T03:54:27.719Z,19.18
2023-07-10T03:55:30.312Z,19.24
2023-07-10T03:56:33.034Z,19.30
2023-07-10T03:57:35.645Z,19.35
2023-07-10T03:58:42.046Z,19.40
2023-07-10T03:59:44.656Z,19.47
2023-07-10T04:00:47.273Z,19.54
2023-07-10T04:01:49.912Z,19.62
2023-07-10T04:02:52.588Z,19.71
2023-07-10T04:03:55.301Z,19.79
2023-07-10T04:04:57.949Z,19.88
2023-07-10T04:06:01.861Z,19.97
2023-07-10T04:07:04.781Z,20.06
2023-07-10T04:08:07.369Z,20.14
2023-07-10T04:09:09.997Z,20.25
2023-07-10T04:10:12.564Z,20.33
2023-07-10T04:11:17.954Z,20.42
2023-07-10T04:12:20.608Z,20.50
2023-07-10T04:13:23.251Z,20.58
2023-07-10T04:14:25.906Z,20.65
2023-07-10T04:15:28.508Z,20.75
2023-07-10T04:16:31.771Z,20.87
2023-07-10T04:17:36.192Z,20.98
2023-07-10T04:18:40.419Z,21.10
2023-07-10T04:19:43.490Z,21.22
2023-07-10T04:20:46.071Z,21.34
2023-07-10T04:21:48.749Z,21.47
2023-07-10T04:22:51.346Z,21.64
2023-07-10T04:23:54.300Z,21.80
2023-07-10T04:25:05.286Z,21.99
2023-07-10T04:26:15.660Z,22.18
2023-07-10T04:27:18.269Z,22.30
2023-07-10T04:28:20.934Z,22.42
2023-07-10T04:29:23.715Z,22.54
2023-07-10T04:30:26.291Z,22.63
2023-07-10T04:31:29.387Z,22.70
2023-07-10T04:32:32.049Z,22.78
2023-07-10T04:33:35.722Z,22.88
2023-07-10T04:34:38.520Z,23.01
2023-07-10T04:35:42.497Z,23.13
2023-07-10T04:36:45.117Z,23.23
2023-07-10T04:37:47.752Z,23.35
2023-07-10T04:38:51.111Z,23.45
2023-07-10T04:39:53.700Z,23.56
2023-07-10T04:40:57.273Z,23.67
2023-07-10T04:41:59.899Z,23.76
2023-07-10T04:43:06.027Z,23.84
2023-07-10T04:44:08.665Z,23.93
2023-07-10T04:45:11.328Z,24.01
2023-07-10T04:46:15.555Z,24.13
2023-07-10T04:47:18.290Z,24.27
2023-07-10T04:48:21.074Z,24.38
2023-07-10T04:49:23.775Z,24.51
2023-07-10T04:50:26.351Z,24.62
2023-07-10T04:51:28.934Z,24.72
2023-07-10T04:52:31.509Z,24.85
2023-07-10T04:53:35.068Z,24.97
2023-07-10T04:54:37.843Z,25.06
2023-07-10T04:55:40.480Z,25.13
2023-07-10T04:56:43.114Z,25.25
2023-07-10T04:57:45.728Z,25.36
2023-07-10T04:58:53.954Z,25.51
2023-07-10T04:59:56.631Z,25.62
2023-07-10T05:01:00.724Z,25.69
2023-07-10T05:02:03.491Z,25.77
2023-07-10T05:03:07.044Z,25.85
2023-07-10T05:04:09.749Z,25.94
2023-07-10T05:05:12.403Z,26.03
2023-07-10T05:06:15.616Z,26.11
2023-07-10T05:07:18.200Z,26.17
2023-07-10T05:08:23.065Z,26.23
2023-07-10T05:09:26.780Z,26.29
2023-07-10T05:10:30.651Z,26.33
2023-07-10T05:11:33.282Z,26.38
2023-07-10T05:12:35.871Z,26.42
2023-07-10T05:13:38.858Z,26.47
2023-07-10T05:14:41.501Z,26.52
2023-07-10T05:15:44.122Z,26.58
2023-07-10T05:16:46.866Z,26.66
2023-07-10T05:17:49.655Z,26.73
2023-07-10T05:18:52.398Z,26.81
2023-07-10T05:19:54.961Z,26.91
2023-07-10T05:20:59.601Z,26.99
2023-07-10T05:22:02.238Z,27.05
2023-07-10T05:23:05.030Z,27.15
2023-07-10T05:24:07.646Z,27.25
2023-07-10T05:25:11.261Z,27.33
2023-07-10T05:26:16.549Z,27.42
2023-07-10T05:27:19.179Z,27.52
2023-07-10T05:28:21.785Z,27.66
2023-07-10T05:29:24.389Z,27.79
2023-07-10T05:30:26.963Z,27.89
2023-07-10T05:31:29.655Z,27.98
2023-07-10T05:32:32.315Z,28.11
2023-07-10T05:33:35.589Z,28.28
2023-07-10T05:34:38.183Z,28.37
2023-07-10T05:35:49.859Z,28.47
2023-07-10T05:36:52.452Z,28.57
2023-07-10T05:37:55.052Z,28.65
2023-07-10T05:38:57.640Z,28.72
2023-07-10T05:40:00.249Z,28.82
2023-07-10T05:41:03.654Z,28.89
2023-07-10T05:42:08.367Z,28.99
2023-07-10T05:43:10.934Z,29.09
2023-07-10T05:44:13.628Z,29.18
2023-07-10T05:45:16.272Z,29.22
2023-07-10T05:46:19.795Z,29.26
2023-07-10T05:47:22.520Z,29.30
2023-07-10T05:48:25.506Z,29.34
2023-07-10T05:49:28.137Z,29.40
2023-07-10T05:50:30.747Z,29.53
2023-07-10T05:51:33.681Z,29.62
2023-07-10T05:52:36.284Z,29.69
2023-07-10T05:53:38.918Z,29.82
2023-07-10T05:54:41.486Z,29.96
2023-07-10T05:55:50.908Z,30.07
2023-07-10T05:56:53.590Z,30.18
2023-07-10T05:57:56.218Z,30.25
2023-07-10T05:58:58.830Z,30.36
2023-07-10T06:00:01.427Z,30.42
2023-07-10T06:01:04.273Z,30.45
2023-07-10T06:02:07.298Z,30.52
2023-07-10T06:03:10.758Z,30.62
2023-07-10T06:04:13.434Z,30.71
2023-07-10T06:05:16.061Z,30.79
2023-07-10T06:06:18.658Z,30.84
2023-07-10T06:07:21.268Z,30.88
2023-07-10T06:08:25.112Z,30.93
2023-07-10T06:09:27.690Z,31.00
2023-07-10T06:10:30.277Z,31.06
2023-07-10T06:11:33.442Z,31.12
2023-07-10T06:12:36.077Z,31.20
2023-07-10T06:13:38.730Z,31.28
2023-07-10T06:14:41.356Z,31.38
2023-07-10T06:15:45.925Z,31.47
2023-07-10T06:16:48.572Z,31.57
2023-07-10T06:17:51.261Z,31.67
2023-07-10T06:18:53.876Z,31.76
2023-07-10T06:19:56.867Z,31.85
2023-07-10T06:21:00.357Z,31.98
2023-07-10T06:22:08.314Z,32.05
2023-07-10T06:23:11.110Z,32.11
2023-07-10T06:24:13.758Z,32.17
2023-07-10T06:25:16.454Z,32.23
2023-07-10T06:26:19.090Z,32.26
2023-07-10T06:27:21.672Z,32.29
2023-07-10T06:28:24.576Z,32.36
2023-07-10T06:29:27.234Z,32.42
2023-07-10T06:30:29.815Z,32.47
2023-07-10T06:31:32.434Z,32.49
2023-07-10T06:32:37.350Z,32.52
2023-07-10T06:33:40.596Z,32.56
2023-07-10T06:34:43.209Z,32.61
2023-07-10T06:35:45.776Z,32.67
2023-07-10T06:36:48.356Z,32.72
2023-07-10T06:37:50.930Z,32.77
2023-07-10T06:38:53.538Z,32.79
2023-07-10T06:40:06.792Z,32.83
2023-07-10T06:41:13.000Z,32.86
2023-07-10T06:42:17.831Z,32.87
2023-07-10T06:43:21.566Z,32.88
2023-07-10T06:44:24.159Z,32.85
2023-07-10T06:45:26.791Z,32.84
2023-07-10T06:46:29.386Z,32.84
2023-07-10T06:47:35.610Z,32.83
2023-07-10T06:48:40.703Z,32.80
2023-07-10T06:49:43.306Z,32.78
2023-07-10T06:50:53.402Z,32.75
2023-07-10T06:51:55.971Z,32.72
2023-07-10T06:52:59.811Z,32.67
2023-07-10T06:54:05.823Z,32.63
2023-07-10T06:55:11.869Z,32.60
2023-07-10T06:56:14.514Z,32.54
2023-07-10T06:57:17.154Z,32.47
2023-07-10T06:58:19.722Z,32.42
2023-07-10T06:59:23.061Z,32.39
2023-07-10T07:00:25.770Z,32.34
2023-07-10T07:01:28.458Z,32.24
2023-07-10T07:02:31.154Z,32.17
2023-07-10T07:03:33.849Z,32.13
2023-07-10T07:04:36.492Z,32.10
2023-07-10T07:05:42.627Z,32.06
2023-07-10T07:06:45.250Z,32.01
2023-07-10T07:07:47.892Z,31.98
2023-07-10T07:08:52.925Z,31.95
2023-07-10T07:09:55.591Z,31.90
2023-07-10T07:10:58.255Z,31.86
2023-07-10T07:12:01.039Z,31.81
2023-07-10T07:13:03.668Z,31.78
2023-07-10T07:14:06.462Z,31.75
2023-07-10T07:15:10.634Z,31.72
2023-07-10T07:16:14.793Z,31.70
2023-07-10T07:17:17.553Z,31.67
2023-07-10T07:18:21.969Z,31.65
2023-07-10T07:19:24.564Z,31.62
2023-07-10T07:20:27.169Z,31.60
2023-07-10T07:21:29.737Z,31.59
2023-07-10T07:22:32.436Z,31.56
2023-07-10T07:23:35.012Z,31.54
2023-07-10T07:24:37.718Z,31.53
2023-07-10T07:25:41.982Z,31.50
2023-07-10T07:26:44.680Z,31.49
2023-07-10T07:27:47.399Z,31.48
2023-07-10T07:28:50.035Z,31.48
2023-07-10T07:29:54.888Z,31.46
2023-07-10T07:31:06.980Z,31.44
2023-07-10T07:32:13.184Z,31.42
2023-07-10T07:33:19.812Z,31.40
2023-07-10T07:34:22.428Z,31.37
2023-07-10T07:35:25.034Z,31.35
2023-07-10T07:36:27.709Z,31.33
2023-07-10T07:37:30.328Z,31.33
2023-07-10T07:38:33.305Z,31.32
2023-07-10T07:39:35.887Z,31.32
2023-07-10T07:40:38.829Z,31.31
2023-07-10T07:41:41.479Z,31.32
2023-07-10T07:42:48.089Z,31.31
2023-07-10T07:43:50.724Z,31.28
2023-07-10T07:44:53.354Z,31.27
2023-07-10T07:45:57.843Z,31.26
2023-07-10T07:47:00.437Z,31.25
2023-07-10T07:48:03.082Z,31.24
2023-07-10T07:49:06.974Z,31.22
2023-07-10T07:50:10.740Z,31.21
2023-07-10T07:51:13.388Z,31.20
2023-07-10T07:52:15.962Z,31.20
2023-07-10T07:53:18.535Z,31.19
2023-07-10T07:54:21.211Z,31.18
2023-07-10T07:55:23.883Z,31.18
2023-07-10T07:56:26.501Z,31.18
2023-07-10T07:57:29.847Z,31.18
2023-07-10T07:58:32.622Z,31.18
2023-07-10T07:59:35.292Z,31.19
2023-07-10T08:00:37.901Z,31.19
2023-07-10T08:01:40.475Z,31.20
2023-07-10T08:02:43.094Z,31.21
2023-07-10T08:03:45.939Z,31.23
2023-07-10T08:04:48.829Z,31.25
2023-07-10T08:05:51.636Z,31.25
2023-07-10T08:06:54.351Z,31.25
2023-07-10T08:07:56.926Z,31.25
2023-07-10T08:08:59.959Z,31.27
2023-07-10T08:10:03.612Z,31.28
2023-07-10T08:11:07.752Z,31.29
2023-07-10T08:12:10.430Z,31.30
2023-07-10T08:13:14.080Z,31.31
2023-07-10T08:14:16.730Z,31.32
2023-07-10T08:15:19.462Z,31.32
2023-07-10T08:16:22.367Z,31.32
2023-07-10T08:17:25.254Z,31.32
2023-07-10T08:18:28.112Z,31.33
2023-07-10T08:19:30.681Z,31.33
2023-07-10T08:20:33.887Z,31.34
2023-07-10T08:21:36.511Z,31.35
2023-07-10T08:22:39.085Z,31.36
2023-07-10T08:23:41.865Z,31.38
2023-07-10T08:24:44.572Z,31.39
2023-07-10T08:25:47.169Z,31.41
2023-07-10T08:26:49.756Z,31.42
2023-07-10T08:27:52.388Z,31.43
2023-07-10T08:28:54.956Z,31.46
2023-07-10T08:29:57.542Z,31.46
2023-07-10T08:31:00.630Z,31.47
2023-07-10T08:32:03.809Z,31.47
2023-07-10T08:33:06.454Z,31.48
2023-07-10T08:34:09.136Z,31.51
2023-07-10T08:35:11.785Z,31.53
2023-07-10T08:36:14.551Z,31.54
2023-07-10T08:37:17.127Z,31.56
2023-07-10T08:38:19.792Z,31.59
2023-07-10T08:39:23.257Z,31.62
2023-07-10T08:40:31.878Z,31.65
2023-07-10T08:41:34.733Z,31.67
2023-07-10T08:42:37.336Z,31.68
2023-07-10T08:43:41.543Z,31.69
2023-07-10T08:44:45.264Z,31.71
2023-07-10T08:45:49.328Z,31.73
2023-07-10T08:46:52.443Z,31.74
2023-07-10T08:48:16.081Z,31.75
2023-07-10T08:49:30.563Z,31.76
2023-07-10T08:50:33.335Z,31.79
2023-07-10T08:51:58.846Z,31.82
2023-07-10T08:53:09.233Z,31.85
2023-07-10T08:54:14.959Z,31.89
2023-07-10T08:55:29.026Z,31.91
2023-07-10T08:56:50.043Z,31.95
2023-07-10T08:57:58.157Z,31.98
2023-07-10T08:59:11.531Z,32.00
2023-07-10T09:00:17.130Z,32.03
2023-07-10T09:01:32.716Z,32.05
2023-07-10T09:02:46.266Z,32.08
2023-07-10T09:03:52.488Z,32.10
2023-07-10T09:04:57.968Z,32.13
2023-07-10T09:06:01.634Z,32.09
2023-07-10T09:07:04.777Z,32.10
2023-07-10T09:08:12.089Z,32.15
2023-07-10T09:09:26.419Z,32.19
2023-07-10T09:10:40.941Z,32.26
2023-07-10T09:11:44.321Z,32.32
2023-07-10T09:12:53.444Z,32.39
2023-07-10T09:14:14.114Z,32.44
2023-07-10T09:15:36.006Z,32.51
2023-07-10T09:16:39.323Z,32.58
2023-07-10T09:17:54.476Z,32.60
2023-07-10T09:19:00.614Z,32.62
2023-07-10T09:20:06.852Z,32.64
2023-07-10T09:21:28.888Z,32.66
2023-07-10T09:22:34.029Z,32.69
2023-07-10T09:23:36.655Z,32.74
2023-07-10T09:24:39.271Z,32.78
2023-07-10T09:25:41.864Z,32.81
2023-07-10T09:26:44.479Z,32.84
2023-07-10T09:27:47.169Z,32.86
2023-07-10T09:29:10.958Z,32.86
2023-07-10T09:30:27.947Z,32.87
2023-07-10T09:31:46.446Z,32.87
2023-07-10T09:32:51.971Z,32.88
2023-07-10T09:34:01.068Z,32.89
2023-07-10T09:35:04.308Z,32.90
2023-07-10T09:36:14.855Z,32.94
2023-07-10T09:37:23.790Z,32.99
2023-07-10T09:38:27.440Z,33.03
2023-07-10T09:39:32.722Z,33.06
2023-07-10T09:40:42.386Z,33.09
2023-07-10T09:41:45.564Z,33.12
2023-07-10T09:42:48.186Z,33.13
2023-07-10T09:43:55.758Z,33.16
2023-07-10T09:45:00.853Z,33.19
2023-07-10T09:46:04.064Z,33.21
2023-07-10T09:47:17.469Z,33.24
2023-07-10T09:48:33.754Z,33.27
2023-07-10T09:49:43.257Z,33.31
2023-07-10T09:50:50.362Z,33.33
2023-07-10T09:52:02.991Z,33.35
2023-07-10T09:53:05.550Z,33.37
2023-07-10T09:54:15.895Z,33.38
2023-07-10T09:55:19.015Z,33.39
2023-07-10T09:56:33.348Z,33.42
2023-07-10T09:57:55.968Z,33.46
2023-07-10T09:58:58.640Z,33.49
2023-07-10T10:00:01.435Z,33.51
2023-07-10T10:01:06.194Z,33.54
2023-07-10T10:02:56.350Z,33.57
2023-07-10T10:04:03.976Z,33.61
2023-07-10T10:05:12.702Z,33.65
2023-07-10T10:06:22.385Z,33.69
2023-07-10T10:07:25.320Z,33.75
2023-07-10T10:08:30.315Z,33.79
2023-07-10T10:09:33.649Z,33.83
2023-07-10T10:10:39.055Z,33.87
2023-07-10T10:11:48.751Z,33.89
2023-07-10T10:13:27.195Z,33.90
2023-07-10T10:14:57.790Z,33.91
2023-07-10T10:16:26.287Z,33.92
2023-07-10T10:17:32.607Z,33.92
2023-07-10T10:18:41.671Z,33.92
2023-07-10T10:19:51.618Z,33.91
2023-07-10T10:20:55.433Z,33.91
2023-07-10T10:21:58.104Z,33.91
2023-07-10T10:23:00.993Z,33.92
2023-07-10T10:24:08.598Z,33.93
2023-07-10T10:25:20.666Z,33.96
2023-07-10T10:26:51.433Z,33.99
2023-07-10T10:28:08.296Z,34.04
2023-07-10T10:29:10.887Z,34.08
2023-07-10T10:30:33.722Z,34.10
2023-07-10T10:31:44.055Z,34.14
2023-07-10T10:33:01.707Z,34.19
2023-07-10T10:34:32.920Z,34.23
2023-07-10T10:35:57.596Z,34.26
2023-07-10T10:37:09.060Z,34.30
2023-07-10T10:38:29.559Z,34.35
2023-07-10T10:39:40.470Z,34.40
2023-07-10T10:40:54.843Z,34.44
2023-07-10T10:42:23.322Z,34.47
2023-07-10T10:43:35.455Z,34.50
2023-07-10T10:44:52.148Z,34.52
2023-07-10T10:46:04.998Z,34.53
2023-07-10T10:47:24.480Z,34.55
2023-07-10T10:48:53.271Z,34.59
2023-07-10T10:50:09.849Z,34.63
2023-07-10T10:51:28.225Z,34.69
2023-07-10T10:52:42.554Z,34.70
2023-07-10T10:53:51.884Z,34.73
2023-07-10T10:55:06.407Z,34.74
2023-07-10T10:56:15.180Z,34.78
2023-07-10T10:57:33.659Z,34.81
2023-07-10T10:58:36.224Z,34.82
2023-07-10T10:59:49.595Z,34.83
2023-07-10T11:01:04.161Z,34.85
2023-07-10T11:02:37.668Z,34.86
2023-07-10T11:03:45.559Z,34.86
2023-07-10T11:04:52.353Z,34.87
2023-07-10T11:05:59.578Z,34.88
2023-07-10T11:07:12.664Z,34.88
2023-07-10T11:08:22.533Z,34.88
2023-07-10T11:09:32.658Z,34.90
2023-07-10T11:10:40.364Z,34.91
2023-07-10T11:11:43.735Z,34.91
2023-07-10T11:12:46.396Z,34.91
2023-07-10T11:13:49.341Z,34.92
2023-07-10T11:14:58.258Z,34.93
2023-07-10T11:16:05.993Z,34.95
2023-07-10T11:17:12.334Z,34.97
2023-07-10T11:18:16.601Z,34.98
2023-07-10T11:19:28.709Z,35.00
2023-07-10T11:20:31.420Z,35.02
2023-07-10T11:21:34.606Z,35.02
2023-07-10T11:22:37.638Z,35.03
2023-07-10T11:23:42.961Z,35.03
2023-07-10T11:24:50.189Z,35.04
2023-07-10T11:26:02.168Z,35.05
2023-07-10T11:27:15.233Z,35.08
2023-07-10T11:28:28.375Z,35.09
2023-07-10T11:29:58.382Z,35.10
2023-07-10T11:31:25.058Z,35.10
2023-07-10T11:32:28.294Z,35.11
2023-07-10T11:33:30.959Z,35.11
2023-07-10T11:34:39.489Z,35.13
2023-07-10T11:36:15.789Z,35.13
2023-07-10T11:37:42.527Z,35.14
2023-07-10T11:39:06.350Z,35.14
2023-07-10T11:40:27.557Z,35.13
2023-07-10T11:41:35.593Z,35.14
2023-07-10T11:42:38.212Z,35.16
2023-07-10T11:43:40.840Z,35.17
2023-07-10T11:44:47.663Z,35.19
2023-07-10T11:45:55.503Z,35.21
2023-07-10T11:46:58.314Z,35.22
2023-07-10T11:48:01.146Z,35.23
2023-07-10T11:49:16.739Z,35.25
2023-07-10T11:50:27.864Z,35.25
2023-07-10T11:52:31.121Z,35.26
2023-07-10T11:53:33.731Z,35.27
2023-07-10T11:54:36.311Z,35.27
2023-07-10T11:56:06.885Z,35.28
2023-07-10T11:57:09.759Z,35.30
2023-07-10T11:58:23.821Z,35.31
2023-07-10T11:59:27.845Z,35.35
2023-07-10T12:00:31.768Z,35.37
2023-07-10T12:01:34.608Z,35.40
2023-07-10T12:02:45.492Z,35.40
2023-07-10T12:03:48.281Z,35.41
2023-07-10T12:04:51.353Z,35.43
2023-07-10T12:05:53.978Z,35.45
2023-07-10T12:06:58.853Z,35.46
2023-07-10T12:08:18.138Z,35.49
2023-07-10T12:09:20.780Z,35.51
2023-07-10T12:10:25.444Z,35.53
2023-07-10T12:11:38.337Z,35.56
2023-07-10T12:12:40.917Z,35.58
2023-07-10T12:13:43.552Z,35.59
2023-07-10T12:14:46.168Z,35.60
2023-07-10T12:15:50.398Z,35.62
2023-07-10T12:17:18.351Z,35.64
2023-07-10T12:18:45.584Z,35.66
2023-07-10T12:19:48.748Z,35.67
2023-07-10T12:20:53.547Z,35.69
2023-07-10T12:21:59.705Z,35.71
2023-07-10T12:23:13.009Z,35.72
2023-07-10T12:24:18.020Z,35.75
2023-07-10T12:25:23.189Z,35.78
2023-07-10T12:28:42.002Z,35.90
2023-07-10T12:29:55.754Z,35.92
2023-07-10T12:30:59.733Z,35.92
2023-07-10T12:32:02.730Z,35.93
2023-07-10T12:33:27.767Z,35.94
2023-07-10T12:34:33.929Z,35.95
2023-07-10T12:35:38.525Z,35.95
2023-07-10T12:36:41.219Z,35.94
2023-07-10T12:37:48.891Z,35.92
2023-07-10T12:38:52.920Z,35.92
2023-07-10T12:39:55.744Z,35.90
2023-07-10T12:40:58.361Z,35.89
2023-07-10T12:42:00.992Z,35.88
2023-07-10T12:43:21.974Z,35.87
2023-07-10T12:44:29.882Z,35.87
2023-07-10T12:45:36.756Z,35.87
2023-07-10T12:46:39.507Z,35.86
2023-07-10T12:47:58.102Z,35.85
2023-07-10T12:49:15.808Z,35.85
2023-07-10T12:50:21.686Z,35.84
2023-07-10T12:51:29.996Z,35.83
2023-07-10T12:52:38.035Z,35.82
2023-07-10T12:53:41.461Z,35.81
2023-07-10T12:54:49.659Z,35.80
2023-07-10T12:56:07.491Z,35.81
2023-07-10T12:57:23.930Z,35.83
2023-07-10T12:58:26.504Z,35.85
2023-07-10T12:59:35.969Z,35.86
2023-07-10T13:00:44.121Z,35.89
2023-07-10T13:01:55.628Z,35.91
2023-07-10T13:02:58.823Z,35.91
2023-07-10T13:04:23.391Z,35.91
2023-07-10T13:05:31.888Z,35.93
2023-07-10T13:06:35.125Z,35.96
2023-07-10T13:07:40.746Z,35.96
2023-07-10T13:08:47.263Z,35.95
2023-07-10T13:09:58.196Z,35.95
2023-07-10T13:11:01.912Z,35.95
2023-07-10T13:12:05.227Z,35.96
2023-07-10T13:13:15.290Z,35.98
2023-07-10T13:14:43.766Z,35.99
2023-07-10T13:15:47.540Z,35.98
2023-07-10T13:16:50.307Z,35.97
2023-07-10T13:17:56.757Z,35.96
2023-07-10T13:18:59.340Z,35.95
2023-07-10T13:21:15.037Z,35.89
2023-07-10T13:22:17.673Z,35.87
2023-07-10T13:23:20.278Z,35.85
2023-07-10T13:24:22.908Z,35.84
2023-07-10T13:25:30.688Z,35.83
2023-07-10T13:26:33.369Z,35.81
2023-07-10T13:27:36.078Z,35.80
2023-07-10T13:28:48.087Z,35.80
2023-07-10T13:29:52.137Z,35.79
2023-07-10T13:30:55.263Z,35.79
2023-07-10T13:31:57.926Z,35.79
2023-07-10T13:33:00.615Z,35.80
2023-07-10T13:34:03.767Z,35.81
2023-07-10T13:35:06.922Z,35.82
2023-07-10T13:36:29.796Z,35.83
2023-07-10T13:37:32.357Z,35.83
2023-07-10T13:38:34.953Z,35.84
2023-07-10T13:39:37.520Z,35.85
2023-07-10T13:40:40.182Z,35.87
2023-07-10T13:41:42.931Z,35.88
2023-07-10T13:42:45.523Z,35.90
2023-07-10T13:43:48.817Z,35.92
2023-07-10T13:44:52.305Z,35.93
2023-07-10T13:46:02.938Z,35.94
2023-07-10T13:47:13.974Z,35.95
2023-07-10T13:48:18.032Z,35.97
2023-07-10T13:49:20.733Z,35.98
2023-07-10T13:50:23.408Z,35.99
2023-07-10T13:51:27.901Z,35.99
2023-07-10T13:52:30.821Z,35.99
2023-07-10T13:53:33.645Z,35.99
2023-07-10T13:54:36.236Z,36.00
2023-07-10T13:55:39.345Z,36.02
2023-07-10T13:56:46.171Z,36.03
2023-07-10T13:57:48.783Z,36.03
2023-07-10T13:58:53.075Z,36.03
2023-07-10T13:59:56.716Z,36.05
2023-07-10T14:00:59.324Z,36.05
2023-07-10T14:02:02.131Z,36.05
2023-07-10T14:03:04.849Z,36.05
2023-07-10T14:04:07.503Z,36.05
2023-07-10T14:05:13.689Z,36.06
2023-07-10T14:06:30.883Z,36.06
2023-07-10T14:07:34.859Z,36.06
2023-07-10T14:08:41.062Z,36.06
2023-07-10T14:09:43.642Z,36.07
2023-07-10T14:10:46.221Z,36.07
2023-07-10T14:11:48.807Z,36.05
2023-07-10T14:12:51.448Z,36.04
2023-07-10T14:13:54.078Z,36.02